Airfield :
LOGIN :

Register | Disclaimer

   EN    FR    IT 

 










Legend :    VFR   Marginal VFR   IFR   Intensive IFR   Very Intensive IFR
Visi :
Ceiling :
>= 8 km
>= 3000ft
5 to 8 km
1000 to 3000 ft
1500m to 5 km
500 to 1000 ft
800 to 1500m
200 to 500 ft
< 800m
< 200 ft
Symbols :   Thunderstorms  Fog  Heavy snow  Heavy precipitations  Wind > 20 kt
SIGMETs :     Misc.  Thunderstorms  Icing  Turbulence  Mountain Waves  Volcanic Ashes






- Airport Elevation : 1090 ft
- IATA code : CFE


LFLC - Clermont-Ferrand Auvergne

CURRENT METAR :
  • 021800Z AUTO 28009KT 9999 FEW052 SCT070 BKN080 20/10 Q1018 NOSIG

EXPIRED METARs :
  • 021730Z AUTO 29008KT 250V330 9999 BKN054 BKN074 OVC140 20/10 Q1018 NOSIG
  • 021700Z AUTO 29011KT 260V350 9999 SCT050 BKN070 BKN090 20/11 Q1018 TEMPO FEW045TCU BKN060
  • 021630Z AUTO 28011KT 9999 FEW049 BKN092 OVC120 20/11 Q1018 TEMPO FEW045TCU BKN060
  • 021600Z AUTO 29009KT 250V330 9999 FEW047 BKN090 BKN120 20/11 Q1018 TEMPO FEW045TCU BKN060
  • 021530Z AUTO 30012KT 270V350 9999 FEW058 OVC092 20/12 Q1017 TEMPO FEW045TCU BKN060

TAF TAF LFLC
Valid from the 02 at 15:00 until the 03 at 15:00 UTC


021400Z 0215/0315 31010KT 9999 FEW050 BKN065
PROB30
TEMPO 0215/0218 FEW045TCU BKN060
BECMG 0220/0222 VRB03KT
TEMPO 0303/0310 -RA BKN030
BECMG 0307/0309 36010KT
ATIS : +33 4 73 62 74 38



MET'MAP, your aeronautical weather chart ! - Copyright ORBIFLY December 2007 - Disclaimer

ORBIFLY MET'MAP TEAM :

Programming & Development : Alexandra Zaïnal
Concept & original design : Baudouin d'Aumeries
Assistance for programming : Marc-Olivier Méhu
Technical & hardware support : Manuel Goepfert

Contact : metmap@orbifly.com




SOURCES & CREDITS :

   NOAA